sensor_id;sensor_type;location;lat;lon;timestamp;P1;durP1;ratioP1;P2;durP2;ratioP2
54641;SDS011;40536;53.194;5.728;2022-09-03T00:00:57;12.77;;;3.00;;
54641;SDS011;40536;53.194;5.728;2022-09-03T00:03:36;12.23;;;3.58;;
54641;SDS011;40536;53.194;5.728;2022-09-03T00:06:19;7.60;;;2.97;;
54641;SDS011;40536;53.194;5.728;2022-09-03T00:09:08;5.53;;;2.95;;
54641;SDS011;40536;53.194;5.728;2022-09-03T00:11:50;3.83;;;2.97;;
54641;SDS011;40536;53.194;5.728;2022-09-03T00:14:26;7.05;;;3.03;;
54641;SDS011;40536;53.194;5.728;2022-09-03T00:16:59;4.38;;;3.00;;
54641;SDS011;40536;53.194;5.728;2022-09-03T00:19:31;3.83;;;3.03;;
54641;SDS011;40536;53.194;5.728;2022-09-03T00:24:47;6.78;;;3.03;;
54641;SDS011;40536;53.194;5.728;2022-09-03T00:27:21;5.70;;;2.85;;
54641;SDS011;40536;53.194;5.728;2022-09-03T00:29:54;5.47;;;3.05;;
54641;SDS011;40536;53.194;5.728;2022-09-03T00:32:32;6.22;;;3.17;;
54641;SDS011;40536;53.194;5.728;2022-09-03T00:35:05;4.07;;;2.88;;
54641;SDS011;40536;53.194;5.728;2022-09-03T00:37:38;9.00;;;3.22;;
54641;SDS011;40536;53.194;5.728;2022-09-03T00:40:06;6.10;;;3.00;;
54641;SDS011;40536;53.194;5.728;2022-09-03T00:42:56;5.30;;;2.90;;
54641;SDS011;40536;53.194;5.728;2022-09-03T00:48:29;4.93;;;2.83;;
54641;SDS011;40536;53.194;5.728;2022-09-03T00:51:09;7.30;;;2.75;;
54641;SDS011;40536;53.194;5.728;2022-09-03T01:01:46;4.15;;;2.72;;
54641;SDS011;40536;53.194;5.728;2022-09-03T01:18:09;4.90;;;2.55;;
54641;SDS011;40536;53.194;5.728;2022-09-03T01:20:58;4.22;;;2.80;;
54641;SDS011;40536;53.194;5.728;2022-09-03T02:01:22;6.03;;;3.10;;
54641;SDS011;40536;53.194;5.728;2022-09-03T02:03:54;5.70;;;2.90;;
54641;SDS011;40536;53.194;5.728;2022-09-03T02:06:24;4.20;;;3.20;;
54641;SDS011;40536;53.194;5.728;2022-09-03T02:08:51;5.93;;;3.33;;
54641;SDS011;40536;53.194;5.728;2022-09-03T02:11:17;7.93;;;3.33;;
54641;SDS011;40536;53.194;5.728;2022-09-03T02:13:44;14.13;;;3.30;;
54641;SDS011;40536;53.194;5.728;2022-09-03T02:16:15;4.93;;;3.15;;
54641;SDS011;40536;53.194;5.728;2022-09-03T02:18:49;5.00;;;3.00;;
54641;SDS011;40536;53.194;5.728;2022-09-03T02:21:17;12.10;;;3.60;;
54641;SDS011;40536;53.194;5.728;2022-09-03T02:23:45;4.60;;;3.22;;
54641;SDS011;40536;53.194;5.728;2022-09-03T02:26:12;4.10;;;3.15;;
54641;SDS011;40536;53.194;5.728;2022-09-03T02:28:42;5.38;;;3.08;;
54641;SDS011;40536;53.194;5.728;2022-09-03T02:31:08;4.82;;;3.50;;
54641;SDS011;40536;53.194;5.728;2022-09-03T02:33:37;6.82;;;3.15;;
54641;SDS011;40536;53.194;5.728;2022-09-03T02:36:07;6.45;;;3.45;;
54641;SDS011;40536;53.194;5.728;2022-09-03T02:38:35;4.07;;;3.40;;
54641;SDS011;40536;53.194;5.728;2022-09-03T02:41:02;5.80;;;2.88;;
54641;SDS011;40536;53.194;5.728;2022-09-03T02:43:33;6.13;;;3.47;;
54641;SDS011;40536;53.194;5.728;2022-09-03T02:46:06;4.32;;;3.33;;
54641;SDS011;40536;53.194;5.728;2022-09-03T02:48:36;6.80;;;3.72;;
54641;SDS011;40536;53.194;5.728;2022-09-03T02:51:02;5.75;;;3.10;;
54641;SDS011;40536;53.194;5.728;2022-09-03T02:53:27;7.82;;;3.30;;
54641;SDS011;40536;53.194;5.728;2022-09-03T02:55:57;10.93;;;3.58;;
54641;SDS011;40536;53.194;5.728;2022-09-03T02:58:24;4.22;;;3.03;;
54641;SDS011;40536;53.194;5.728;2022-09-03T03:00:50;7.53;;;3.25;;
54641;SDS011;40536;53.194;5.728;2022-09-03T03:03:16;4.00;;;3.10;;
54641;SDS011;40536;53.194;5.728;2022-09-03T03:05:49;4.40;;;3.30;;
54641;SDS011;40536;53.194;5.728;2022-09-03T03:08:17;5.53;;;3.28;;
54641;SDS011;40536;53.194;5.728;2022-09-03T03:10:45;4.45;;;3.30;;
54641;SDS011;40536;53.194;5.728;2022-09-03T03:13:13;5.70;;;3.35;;
54641;SDS011;40536;53.194;5.728;2022-09-03T03:15:39;5.30;;;3.28;;
54641;SDS011;40536;53.194;5.728;2022-09-03T03:18:05;11.45;;;3.90;;
54641;SDS011;40536;53.194;5.728;2022-09-03T03:20:31;7.43;;;3.60;;
54641;SDS011;40536;53.194;5.728;2022-09-03T03:23:00;4.18;;;3.15;;
54641;SDS011;40536;53.194;5.728;2022-09-03T03:25:25;7.88;;;3.20;;
54641;SDS011;40536;53.194;5.728;2022-09-03T03:27:53;5.88;;;3.53;;
54641;SDS011;40536;53.194;5.728;2022-09-03T03:30:21;6.88;;;3.20;;
54641;SDS011;40536;53.194;5.728;2022-09-03T03:32:47;4.97;;;3.75;;
54641;SDS011;40536;53.194;5.728;2022-09-03T03:35:12;5.07;;;3.58;;
54641;SDS011;40536;53.194;5.728;2022-09-03T03:37:38;4.07;;;3.65;;
54641;SDS011;40536;53.194;5.728;2022-09-03T03:40:04;5.88;;;3.67;;
54641;SDS011;40536;53.194;5.728;2022-09-03T03:42:32;17.45;;;3.33;;
54641;SDS011;40536;53.194;5.728;2022-09-03T03:44:59;9.20;;;3.60;;
54641;SDS011;40536;53.194;5.728;2022-09-03T03:47:26;17.42;;;4.50;;
54641;SDS011;40536;53.194;5.728;2022-09-03T03:49:53;5.38;;;3.47;;
54641;SDS011;40536;53.194;5.728;2022-09-03T03:52:18;5.35;;;3.58;;
54641;SDS011;40536;53.194;5.728;2022-09-03T03:54:44;5.70;;;3.55;;
54641;SDS011;40536;53.194;5.728;2022-09-03T03:57:09;6.13;;;3.67;;
54641;SDS011;40536;53.194;5.728;2022-09-03T03:59:35;4.60;;;3.70;;
54641;SDS011;40536;53.194;5.728;2022-09-03T04:02:01;4.10;;;3.65;;
54641;SDS011;40536;53.194;5.728;2022-09-03T04:04:26;5.35;;;3.60;;
54641;SDS011;40536;53.194;5.728;2022-09-03T04:06:52;6.70;;;3.97;;
54641;SDS011;40536;53.194;5.728;2022-09-03T04:09:18;4.35;;;3.85;;
54641;SDS011;40536;53.194;5.728;2022-09-03T04:11:43;7.00;;;4.10;;
54641;SDS011;40536;53.194;5.728;2022-09-03T04:14:09;5.07;;;3.90;;
54641;SDS011;40536;53.194;5.728;2022-09-03T04:16:35;5.18;;;3.50;;
54641;SDS011;40536;53.194;5.728;2022-09-03T04:19:01;7.88;;;3.90;;
54641;SDS011;40536;53.194;5.728;2022-09-03T04:21:27;5.55;;;4.00;;
54641;SDS011;40536;53.194;5.728;2022-09-03T04:23:54;4.53;;;3.70;;
54641;SDS011;40536;53.194;5.728;2022-09-03T04:26:22;7.32;;;4.00;;
54641;SDS011;40536;53.194;5.728;2022-09-03T04:28:55;5.13;;;3.78;;
54641;SDS011;40536;53.194;5.728;2022-09-03T04:31:22;6.60;;;3.95;;
54641;SDS011;40536;53.194;5.728;2022-09-03T04:33:48;7.28;;;4.07;;
54641;SDS011;40536;53.194;5.728;2022-09-03T04:36:15;3.92;;;3.47;;
54641;SDS011;40536;53.194;5.728;2022-09-03T04:38:46;5.80;;;4.10;;
54641;SDS011;40536;53.194;5.728;2022-09-03T04:41:14;6.32;;;3.72;;
54641;SDS011;40536;53.194;5.728;2022-09-03T04:43:44;4.00;;;3.60;;
54641;SDS011;40536;53.194;5.728;2022-09-03T04:46:13;5.40;;;3.58;;
54641;SDS011;40536;53.194;5.728;2022-09-03T04:48:39;5.88;;;3.90;;
54641;SDS011;40536;53.194;5.728;2022-09-03T04:51:06;5.45;;;3.83;;
54641;SDS011;40536;53.194;5.728;2022-09-03T04:53:38;5.50;;;3.50;;
54641;SDS011;40536;53.194;5.728;2022-09-03T04:56:11;3.90;;;3.35;;
54641;SDS011;40536;53.194;5.728;2022-09-03T04:58:39;4.90;;;3.63;;
54641;SDS011;40536;53.194;5.728;2022-09-03T05:01:08;6.40;;;3.72;;
54641;SDS011;40536;53.194;5.728;2022-09-03T05:03:34;8.15;;;3.88;;
54641;SDS011;40536;53.194;5.728;2022-09-03T05:06:01;6.68;;;4.20;;
54641;SDS011;40536;53.194;5.728;2022-09-03T05:08:29;7.15;;;3.70;;
54641;SDS011;40536;53.194;5.728;2022-09-03T05:10:59;5.95;;;3.55;;
54641;SDS011;40536;53.194;5.728;2022-09-03T05:13:25;5.70;;;3.80;;
54641;SDS011;40536;53.194;5.728;2022-09-03T05:15:52;4.43;;;3.60;;
54641;SDS011;40536;53.194;5.728;2022-09-03T05:18:25;7.15;;;4.38;;
54641;SDS011;40536;53.194;5.728;2022-09-03T05:21:03;8.50;;;4.03;;
54641;SDS011;40536;53.194;5.728;2022-09-03T05:23:31;5.97;;;3.70;;
54641;SDS011;40536;53.194;5.728;2022-09-03T05:26:02;4.13;;;3.45;;
54641;SDS011;40536;53.194;5.728;2022-09-03T05:28:33;3.90;;;3.45;;
54641;SDS011;40536;53.194;5.728;2022-09-03T05:31:01;5.45;;;4.00;;
54641;SDS011;40536;53.194;5.728;2022-09-03T05:33:28;5.20;;;4.00;;
54641;SDS011;40536;53.194;5.728;2022-09-03T05:35:59;5.43;;;4.05;;
54641;SDS011;40536;53.194;5.728;2022-09-03T05:38:26;6.85;;;4.32;;
54641;SDS011;40536;53.194;5.728;2022-09-03T05:40:51;6.25;;;3.65;;
54641;SDS011;40536;53.194;5.728;2022-09-03T05:43:17;4.53;;;4.05;;
54641;SDS011;40536;53.194;5.728;2022-09-03T05:45:43;7.13;;;4.03;;
54641;SDS011;40536;53.194;5.728;2022-09-03T05:48:09;5.05;;;4.40;;
54641;SDS011;40536;53.194;5.728;2022-09-03T05:50:35;6.78;;;4.00;;
54641;SDS011;40536;53.194;5.728;2022-09-03T05:53:01;5.95;;;3.88;;
54641;SDS011;40536;53.194;5.728;2022-09-03T05:55:26;5.10;;;4.60;;
54641;SDS011;40536;53.194;5.728;2022-09-03T05:57:52;6.13;;;4.25;;
54641;SDS011;40536;53.194;5.728;2022-09-03T06:00:18;5.85;;;3.97;;
54641;SDS011;40536;53.194;5.728;2022-09-03T06:02:51;5.22;;;4.05;;
54641;SDS011;40536;53.194;5.728;2022-09-03T06:05:17;5.95;;;3.88;;
54641;SDS011;40536;53.194;5.728;2022-09-03T06:07:43;6.18;;;4.00;;
54641;SDS011;40536;53.194;5.728;2022-09-03T06:10:13;5.22;;;4.20;;
54641;SDS011;40536;53.194;5.728;2022-09-03T06:12:42;4.65;;;4.20;;
54641;SDS011;40536;53.194;5.728;2022-09-03T06:15:10;5.45;;;3.60;;
54641;SDS011;40536;53.194;5.728;2022-09-03T06:17:36;5.35;;;3.63;;
54641;SDS011;40536;53.194;5.728;2022-09-03T06:20:02;7.22;;;3.63;;
54641;SDS011;40536;53.194;5.728;2022-09-03T06:22:28;4.20;;;3.60;;
54641;SDS011;40536;53.194;5.728;2022-09-03T06:24:55;5.75;;;4.18;;
54641;SDS011;40536;53.194;5.728;2022-09-03T06:27:21;9.20;;;4.22;;
54641;SDS011;40536;53.194;5.728;2022-09-03T06:29:46;8.65;;;3.63;;
54641;SDS011;40536;53.194;5.728;2022-09-03T06:32:12;5.30;;;3.50;;
54641;SDS011;40536;53.194;5.728;2022-09-03T06:34:38;7.13;;;3.60;;
54641;SDS011;40536;53.194;5.728;2022-09-03T06:37:04;5.07;;;3.28;;
54641;SDS011;40536;53.194;5.728;2022-09-03T06:39:29;5.15;;;3.50;;
54641;SDS011;40536;53.194;5.728;2022-09-03T06:41:55;5.93;;;3.65;;
54641;SDS011;40536;53.194;5.728;2022-09-03T06:44:21;6.32;;;3.58;;
54641;SDS011;40536;53.194;5.728;2022-09-03T06:46:46;5.47;;;3.40;;
54641;SDS011;40536;53.194;5.728;2022-09-03T06:49:12;5.25;;;3.53;;
54641;SDS011;40536;53.194;5.728;2022-09-03T06:51:39;4.43;;;3.25;;
54641;SDS011;40536;53.194;5.728;2022-09-03T06:54:05;4.80;;;3.35;;
54641;SDS011;40536;53.194;5.728;2022-09-03T06:56:33;5.45;;;3.60;;
54641;SDS011;40536;53.194;5.728;2022-09-03T06:59:03;7.53;;;3.20;;
54641;SDS011;40536;53.194;5.728;2022-09-03T07:01:31;6.97;;;3.60;;
54641;SDS011;40536;53.194;5.728;2022-09-03T07:03:58;6.43;;;3.55;;
54641;SDS011;40536;53.194;5.728;2022-09-03T07:06:26;4.85;;;3.20;;
54641;SDS011;40536;53.194;5.728;2022-09-03T07:08:53;5.30;;;3.50;;
54641;SDS011;40536;53.194;5.728;2022-09-03T07:11:20;4.97;;;3.50;;
54641;SDS011;40536;53.194;5.728;2022-09-03T07:13:51;4.35;;;3.50;;
54641;SDS011;40536;53.194;5.728;2022-09-03T07:18:45;14.40;;;3.28;;
54641;SDS011;40536;53.194;5.728;2022-09-03T07:21:16;6.55;;;3.38;;
54641;SDS011;40536;53.194;5.728;2022-09-03T07:23:43;6.10;;;3.40;;
54641;SDS011;40536;53.194;5.728;2022-09-03T07:26:16;5.75;;;3.00;;
54641;SDS011;40536;53.194;5.728;2022-09-03T07:28:49;4.65;;;2.90;;
54641;SDS011;40536;53.194;5.728;2022-09-03T07:31:23;6.40;;;2.90;;
54641;SDS011;40536;53.194;5.728;2022-09-03T07:33:54;6.15;;;2.78;;
54641;SDS011;40536;53.194;5.728;2022-09-03T07:36:22;6.50;;;2.97;;
54641;SDS011;40536;53.194;5.728;2022-09-03T07:38:49;7.35;;;3.20;;
54641;SDS011;40536;53.194;5.728;2022-09-03T07:41:15;7.53;;;2.83;;
54641;SDS011;40536;53.194;5.728;2022-09-03T07:43:41;5.38;;;2.80;;
54641;SDS011;40536;53.194;5.728;2022-09-03T07:46:11;5.47;;;2.70;;
54641;SDS011;40536;53.194;5.728;2022-09-03T07:48:41;5.07;;;3.03;;
54641;SDS011;40536;53.194;5.728;2022-09-03T07:51:08;5.05;;;2.75;;
54641;SDS011;40536;53.194;5.728;2022-09-03T07:53:34;5.80;;;2.78;;
54641;SDS011;40536;53.194;5.728;2022-09-03T07:56:00;7.43;;;3.00;;
54641;SDS011;40536;53.194;5.728;2022-09-03T07:58:28;7.15;;;2.92;;
54641;SDS011;40536;53.194;5.728;2022-09-03T08:00:55;4.80;;;2.85;;
54641;SDS011;40536;53.194;5.728;2022-09-03T08:03:21;6.47;;;2.75;;
54641;SDS011;40536;53.194;5.728;2022-09-03T08:05:47;5.35;;;2.70;;
54641;SDS011;40536;53.194;5.728;2022-09-03T08:08:13;4.30;;;2.45;;
54641;SDS011;40536;53.194;5.728;2022-09-03T08:10:39;6.72;;;2.90;;
54641;SDS011;40536;53.194;5.728;2022-09-03T08:13:05;5.13;;;2.67;;
54641;SDS011;40536;53.194;5.728;2022-09-03T08:15:31;6.90;;;2.90;;
54641;SDS011;40536;53.194;5.728;2022-09-03T08:17:58;4.53;;;2.60;;
54641;SDS011;40536;53.194;5.728;2022-09-03T08:20:27;4.35;;;2.60;;
54641;SDS011;40536;53.194;5.728;2022-09-03T08:22:59;5.00;;;3.10;;
54641;SDS011;40536;53.194;5.728;2022-09-03T08:25:25;6.25;;;2.88;;
54641;SDS011;40536;53.194;5.728;2022-09-03T08:27:51;7.18;;;2.50;;
54641;SDS011;40536;53.194;5.728;2022-09-03T08:30:17;7.53;;;2.70;;
54641;SDS011;40536;53.194;5.728;2022-09-03T08:32:43;5.10;;;2.65;;
54641;SDS011;40536;53.194;5.728;2022-09-03T08:35:09;5.32;;;2.40;;
54641;SDS011;40536;53.194;5.728;2022-09-03T08:37:34;4.57;;;2.40;;
54641;SDS011;40536;53.194;5.728;2022-09-03T08:40:00;7.18;;;2.50;;
54641;SDS011;40536;53.194;5.728;2022-09-03T08:45:27;4.50;;;2.53;;
54641;SDS011;40536;53.194;5.728;2022-09-03T08:48:17;4.82;;;2.40;;
54641;SDS011;40536;53.194;5.728;2022-09-03T08:50:44;5.97;;;2.80;;
54641;SDS011;40536;53.194;5.728;2022-09-03T08:53:23;6.82;;;2.67;;
54641;SDS011;40536;53.194;5.728;2022-09-03T08:58:21;5.32;;;2.50;;
54641;SDS011;40536;53.194;5.728;2022-09-03T09:01:09;5.50;;;2.38;;
54641;SDS011;40536;53.194;5.728;2022-09-03T09:06:38;5.28;;;2.40;;
54641;SDS011;40536;53.194;5.728;2022-09-03T09:17:12;3.70;;;2.35;;
54641;SDS011;40536;53.194;5.728;2022-09-03T09:19:56;4.80;;;2.20;;
54641;SDS011;40536;53.194;5.728;2022-09-03T09:22:48;5.57;;;2.28;;
54641;SDS011;40536;53.194;5.728;2022-09-03T09:25:20;4.20;;;2.50;;
54641;SDS011;40536;53.194;5.728;2022-09-03T09:30:20;4.68;;;2.53;;
54641;SDS011;40536;53.194;5.728;2022-09-03T09:32:45;5.15;;;2.63;;
54641;SDS011;40536;53.194;5.728;2022-09-03T09:35:11;6.63;;;2.63;;
54641;SDS011;40536;53.194;5.728;2022-09-03T09:38:12;5.32;;;2.60;;
54641;SDS011;40536;53.194;5.728;2022-09-03T09:40:32;6.17;;;2.70;;
54641;SDS011;40536;53.194;5.728;2022-09-03T09:43:03;4.63;;;2.55;;
54641;SDS011;40536;53.194;5.728;2022-09-03T09:45:29;4.50;;;2.75;;
54641;SDS011;40536;53.194;5.728;2022-09-03T09:47:58;7.50;;;2.80;;
54641;SDS011;40536;53.194;5.728;2022-09-03T09:50:24;4.28;;;2.50;;
54641;SDS011;40536;53.194;5.728;2022-09-03T09:52:58;4.55;;;2.50;;
54641;SDS011;40536;53.194;5.728;2022-09-03T09:55:26;5.88;;;2.70;;
54641;SDS011;40536;53.194;5.728;2022-09-03T09:57:52;7.22;;;2.70;;
54641;SDS011;40536;53.194;5.728;2022-09-03T10:00:29;6.78;;;2.60;;
54641;SDS011;40536;53.194;5.728;2022-09-03T10:02:58;5.80;;;2.80;;
54641;SDS011;40536;53.194;5.728;2022-09-03T10:05:28;9.57;;;3.08;;
54641;SDS011;40536;53.194;5.728;2022-09-03T10:08:04;5.38;;;2.47;;
54641;SDS011;40536;53.194;5.728;2022-09-03T10:10:43;6.93;;;2.60;;
54641;SDS011;40536;53.194;5.728;2022-09-03T10:13:17;6.37;;;2.70;;
54641;SDS011;40536;53.194;5.728;2022-09-03T10:15:57;4.47;;;2.47;;
54641;SDS011;40536;53.194;5.728;2022-09-03T10:26:43;3.40;;;2.15;;
54641;SDS011;40536;53.194;5.728;2022-09-03T10:29:11;3.35;;;2.10;;
54641;SDS011;40536;53.194;5.728;2022-09-03T10:32:03;5.82;;;2.42;;
54641;SDS011;40536;53.194;5.728;2022-09-03T10:34:57;5.30;;;2.65;;
54641;SDS011;40536;53.194;5.728;2022-09-03T10:40:57;8.98;;;2.30;;
54641;SDS011;40536;53.194;5.728;2022-09-03T10:46:25;5.88;;;1.98;;
54641;SDS011;40536;53.194;5.728;2022-09-03T10:51:41;5.28;;;2.10;;
54641;SDS011;40536;53.194;5.728;2022-09-03T10:54:18;6.68;;;2.80;;
54641;SDS011;40536;53.194;5.728;2022-09-03T11:00:06;4.68;;;2.30;;
54641;SDS011;40536;53.194;5.728;2022-09-03T11:07:59;5.50;;;1.85;;
54641;SDS011;40536;53.194;5.728;2022-09-03T11:10:31;5.68;;;2.42;;
54641;SDS011;40536;53.194;5.728;2022-09-03T11:13:04;4.57;;;2.00;;
54641;SDS011;40536;53.194;5.728;2022-09-03T11:15:41;5.35;;;2.10;;
54641;SDS011;40536;53.194;5.728;2022-09-03T11:18:35;5.00;;;1.92;;
54641;SDS011;40536;53.194;5.728;2022-09-03T11:21:09;8.15;;;2.42;;
54641;SDS011;40536;53.194;5.728;2022-09-03T11:23:42;4.93;;;2.20;;
54641;SDS011;40536;53.194;5.728;2022-09-03T11:26:12;6.50;;;2.40;;
54641;SDS011;40536;53.194;5.728;2022-09-03T11:31:30;6.43;;;2.08;;
54641;SDS011;40536;53.194;5.728;2022-09-03T11:34:32;4.90;;;2.08;;
54641;SDS011;40536;53.194;5.728;2022-09-03T11:40:10;4.85;;;2.22;;
54641;SDS011;40536;53.194;5.728;2022-09-03T11:42:41;5.40;;;1.90;;
54641;SDS011;40536;53.194;5.728;2022-09-03T11:47:43;4.28;;;1.98;;
54641;SDS011;40536;53.194;5.728;2022-09-03T11:52:50;5.85;;;2.15;;
54641;SDS011;40536;53.194;5.728;2022-09-03T11:55:25;4.87;;;2.10;;
54641;SDS011;40536;53.194;5.728;2022-09-03T11:57:54;3.63;;;1.98;;
54641;SDS011;40536;53.194;5.728;2022-09-03T12:00:21;4.63;;;2.00;;
54641;SDS011;40536;53.194;5.728;2022-09-03T12:02:49;6.43;;;2.00;;
54641;SDS011;40536;53.194;5.728;2022-09-03T12:08:13;13.20;;;2.47;;
54641;SDS011;40536;53.194;5.728;2022-09-03T12:13:53;5.22;;;2.25;;
54641;SDS011;40536;53.194;5.728;2022-09-03T12:19:21;4.60;;;2.15;;
54641;SDS011;40536;53.194;5.728;2022-09-03T12:21:50;4.28;;;1.90;;
54641;SDS011;40536;53.194;5.728;2022-09-03T12:24:17;3.55;;;1.90;;
54641;SDS011;40536;53.194;5.728;2022-09-03T12:26:44;4.65;;;2.03;;
54641;SDS011;40536;53.194;5.728;2022-09-03T12:29:23;4.95;;;2.00;;
54641;SDS011;40536;53.194;5.728;2022-09-03T12:31:50;3.67;;;1.95;;
54641;SDS011;40536;53.194;5.728;2022-09-03T12:34:17;4.50;;;2.00;;
54641;SDS011;40536;53.194;5.728;2022-09-03T12:36:49;5.32;;;2.00;;
54641;SDS011;40536;53.194;5.728;2022-09-03T12:39:21;6.47;;;2.17;;
54641;SDS011;40536;53.194;5.728;2022-09-03T12:41:53;4.60;;;2.10;;
54641;SDS011;40536;53.194;5.728;2022-09-03T12:49:34;5.05;;;1.80;;
54641;SDS011;40536;53.194;5.728;2022-09-03T12:52:03;6.95;;;1.90;;
54641;SDS011;40536;53.194;5.728;2022-09-03T12:54:45;7.22;;;2.30;;
54641;SDS011;40536;53.194;5.728;2022-09-03T12:57:19;4.93;;;2.42;;
54641;SDS011;40536;53.194;5.728;2022-09-03T12:59:47;5.47;;;2.05;;
54641;SDS011;40536;53.194;5.728;2022-09-03T13:02:18;3.92;;;1.90;;
54641;SDS011;40536;53.194;5.728;2022-09-03T13:04:50;5.65;;;2.15;;
54641;SDS011;40536;53.194;5.728;2022-09-03T13:07:24;4.47;;;2.00;;
54641;SDS011;40536;53.194;5.728;2022-09-03T13:10:02;3.20;;;2.00;;
54641;SDS011;40536;53.194;5.728;2022-09-03T13:12:40;3.72;;;2.20;;
54641;SDS011;40536;53.194;5.728;2022-09-03T13:15:18;4.68;;;2.15;;
54641;SDS011;40536;53.194;5.728;2022-09-03T13:28:44;4.85;;;1.85;;
54641;SDS011;40536;53.194;5.728;2022-09-03T13:34:02;5.25;;;2.30;;
54641;SDS011;40536;53.194;5.728;2022-09-03T13:39:40;3.85;;;2.13;;
54641;SDS011;40536;53.194;5.728;2022-09-03T13:44:51;3.95;;;2.13;;
54641;SDS011;40536;53.194;5.728;2022-09-03T13:47:40;4.00;;;2.20;;
54641;SDS011;40536;53.194;5.728;2022-09-03T13:50:41;4.35;;;2.30;;
54641;SDS011;40536;53.194;5.728;2022-09-03T13:55:49;4.22;;;2.22;;
54641;SDS011;40536;53.194;5.728;2022-09-03T13:58:27;5.47;;;2.17;;
54641;SDS011;40536;53.194;5.728;2022-09-03T14:03:32;3.65;;;2.10;;
54641;SDS011;40536;53.194;5.728;2022-09-03T14:20:12;3.40;;;2.10;;
54641;SDS011;40536;53.194;5.728;2022-09-03T14:22:49;5.22;;;2.15;;
54641;SDS011;40536;53.194;5.728;2022-09-03T14:25:25;3.63;;;2.30;;
54641;SDS011;40536;53.194;5.728;2022-09-03T14:27:52;3.88;;;2.08;;
54641;SDS011;40536;53.194;5.728;2022-09-03T14:55:57;5.88;;;2.53;;
54641;SDS011;40536;53.194;5.728;2022-09-03T15:12:07;3.05;;;1.92;;
54641;SDS011;40536;53.194;5.728;2022-09-03T15:14:45;3.88;;;2.10;;
54641;SDS011;40536;53.194;5.728;2022-09-03T15:17:25;5.38;;;2.28;;
54641;SDS011;40536;53.194;5.728;2022-09-03T15:23:01;5.60;;;2.10;;
54641;SDS011;40536;53.194;5.728;2022-09-03T15:28:18;4.22;;;1.88;;
54641;SDS011;40536;53.194;5.728;2022-09-03T15:31:15;4.03;;;1.83;;
54641;SDS011;40536;53.194;5.728;2022-09-03T15:36:39;3.13;;;1.88;;
54641;SDS011;40536;53.194;5.728;2022-09-03T15:39:15;3.50;;;2.10;;
54641;SDS011;40536;53.194;5.728;2022-09-03T15:41:49;4.57;;;2.30;;
54641;SDS011;40536;53.194;5.728;2022-09-03T15:44:18;4.53;;;2.15;;
54641;SDS011;40536;53.194;5.728;2022-09-03T15:49:35;5.32;;;2.20;;
54641;SDS011;40536;53.194;5.728;2022-09-03T15:55:10;3.50;;;1.83;;
54641;SDS011;40536;53.194;5.728;2022-09-03T16:00:32;3.72;;;2.05;;
54641;SDS011;40536;53.194;5.728;2022-09-03T16:03:14;3.28;;;2.00;;
54641;SDS011;40536;53.194;5.728;2022-09-03T16:06:24;4.22;;;2.13;;
54641;SDS011;40536;53.194;5.728;2022-09-03T16:12:00;4.30;;;1.83;;
54641;SDS011;40536;53.194;5.728;2022-09-03T16:14:50;4.78;;;1.88;;
54641;SDS011;40536;53.194;5.728;2022-09-03T16:20:25;5.60;;;2.00;;
54641;SDS011;40536;53.194;5.728;2022-09-03T16:23:05;5.63;;;2.08;;
54641;SDS011;40536;53.194;5.728;2022-09-03T16:25:51;3.55;;;1.90;;
54641;SDS011;40536;53.194;5.728;2022-09-03T16:28:27;3.97;;;2.00;;
54641;SDS011;40536;53.194;5.728;2022-09-03T16:33:39;4.13;;;1.80;;
54641;SDS011;40536;53.194;5.728;2022-09-03T16:42:04;3.92;;;1.80;;
54641;SDS011;40536;53.194;5.728;2022-09-03T16:53:00;7.03;;;1.90;;
54641;SDS011;40536;53.194;5.728;2022-09-03T16:58:26;5.70;;;1.90;;
54641;SDS011;40536;53.194;5.728;2022-09-03T17:01:07;3.63;;;1.50;;
54641;SDS011;40536;53.194;5.728;2022-09-03T17:03:52;4.50;;;2.10;;
54641;SDS011;40536;53.194;5.728;2022-09-03T17:20:12;5.35;;;2.30;;
54641;SDS011;40536;53.194;5.728;2022-09-03T17:23:26;3.63;;;1.97;;
54641;SDS011;40536;53.194;5.728;2022-09-03T17:26:04;9.25;;;2.42;;
54641;SDS011;40536;53.194;5.728;2022-09-03T17:28:53;4.60;;;2.40;;
54641;SDS011;40536;53.194;5.728;2022-09-03T17:56:51;4.28;;;2.60;;
54641;SDS011;40536;53.194;5.728;2022-09-03T18:04:42;4.60;;;2.55;;
54641;SDS011;40536;53.194;5.728;2022-09-03T18:13:13;6.13;;;2.70;;
54641;SDS011;40536;53.194;5.728;2022-09-03T18:15:48;4.60;;;2.70;;
54641;SDS011;40536;53.194;5.728;2022-09-03T18:18:26;5.10;;;2.50;;
54641;SDS011;40536;53.194;5.728;2022-09-03T18:20:57;5.55;;;3.03;;
54641;SDS011;40536;53.194;5.728;2022-09-03T18:27:02;5.53;;;2.80;;
54641;SDS011;40536;53.194;5.728;2022-09-03T18:30:00;4.25;;;2.80;;
54641;SDS011;40536;53.194;5.728;2022-09-03T18:32:48;6.15;;;3.10;;
54641;SDS011;40536;53.194;5.728;2022-09-03T18:35:32;6.43;;;3.30;;
54641;SDS011;40536;53.194;5.728;2022-09-03T18:38:21;5.68;;;3.53;;
54641;SDS011;40536;53.194;5.728;2022-09-03T18:41:24;4.80;;;3.10;;
54641;SDS011;40536;53.194;5.728;2022-09-03T18:47:40;6.10;;;3.67;;
54641;SDS011;40536;53.194;5.728;2022-09-03T18:53:45;7.18;;;3.10;;
54641;SDS011;40536;53.194;5.728;2022-09-03T18:56:38;4.25;;;3.33;;
54641;SDS011;40536;53.194;5.728;2022-09-03T19:11:54;9.13;;;4.70;;
54641;SDS011;40536;53.194;5.728;2022-09-03T19:21:19;6.63;;;3.55;;
54641;SDS011;40536;53.194;5.728;2022-09-03T19:24:04;5.95;;;4.00;;
54641;SDS011;40536;53.194;5.728;2022-09-03T19:30:01;5.32;;;4.40;;
54641;SDS011;40536;53.194;5.728;2022-09-03T19:36:15;4.93;;;4.38;;
54641;SDS011;40536;53.194;5.728;2022-09-03T19:42:24;12.25;;;5.22;;
54641;SDS011;40536;53.194;5.728;2022-09-03T19:55:29;5.88;;;5.38;;
54641;SDS011;40536;53.194;5.728;2022-09-03T19:58:17;5.47;;;4.90;;
54641;SDS011;40536;53.194;5.728;2022-09-03T20:01:05;5.78;;;5.20;;
54641;SDS011;40536;53.194;5.728;2022-09-03T20:03:50;7.75;;;5.75;;
54641;SDS011;40536;53.194;5.728;2022-09-03T20:06:35;6.45;;;5.60;;
54641;SDS011;40536;53.194;5.728;2022-09-03T20:09:21;5.10;;;4.60;;
54641;SDS011;40536;53.194;5.728;2022-09-03T20:12:13;8.85;;;5.13;;
54641;SDS011;40536;53.194;5.728;2022-09-03T20:14:41;8.55;;;6.35;;
54641;SDS011;40536;53.194;5.728;2022-09-03T20:20:18;6.63;;;4.82;;
54641;SDS011;40536;53.194;5.728;2022-09-03T20:25:40;5.70;;;5.20;;
54641;SDS011;40536;53.194;5.728;2022-09-03T20:31:47;5.43;;;4.88;;
54641;SDS011;40536;53.194;5.728;2022-09-03T20:40:22;6.00;;;4.78;;
54641;SDS011;40536;53.194;5.728;2022-09-03T20:43:23;9.10;;;4.70;;
54641;SDS011;40536;53.194;5.728;2022-09-03T20:46:12;5.07;;;4.57;;
54641;SDS011;40536;53.194;5.728;2022-09-03T20:49:14;7.88;;;5.53;;
54641;SDS011;40536;53.194;5.728;2022-09-03T20:52:19;6.35;;;4.45;;
54641;SDS011;40536;53.194;5.728;2022-09-03T21:00:15;4.93;;;4.40;;
54641;SDS011;40536;53.194;5.728;2022-09-03T21:05:39;6.13;;;4.47;;
54641;SDS011;40536;53.194;5.728;2022-09-03T21:08:36;6.97;;;3.92;;
54641;SDS011;40536;53.194;5.728;2022-09-03T21:11:10;7.90;;;4.07;;
54641;SDS011;40536;53.194;5.728;2022-09-03T21:25:01;6.50;;;4.50;;
54641;SDS011;40536;53.194;5.728;2022-09-03T21:30:47;7.72;;;4.13;;
54641;SDS011;40536;53.194;5.728;2022-09-03T21:35:52;5.90;;;3.90;;
54641;SDS011;40536;53.194;5.728;2022-09-03T21:38:27;5.55;;;3.80;;
54641;SDS011;40536;53.194;5.728;2022-09-03T21:40:59;6.00;;;4.03;;
54641;SDS011;40536;53.194;5.728;2022-09-03T21:46:14;8.57;;;4.53;;
54641;SDS011;40536;53.194;5.728;2022-09-03T21:48:56;7.13;;;4.32;;
54641;SDS011;40536;53.194;5.728;2022-09-03T21:51:34;5.68;;;3.90;;
54641;SDS011;40536;53.194;5.728;2022-09-03T21:54:26;7.70;;;4.72;;
54641;SDS011;40536;53.194;5.728;2022-09-03T22:04:50;7.05;;;4.00;;
54641;SDS011;40536;53.194;5.728;2022-09-03T22:13:30;7.10;;;3.78;;
54641;SDS011;40536;53.194;5.728;2022-09-03T22:16:19;7.05;;;4.50;;
54641;SDS011;40536;53.194;5.728;2022-09-03T22:18:53;6.38;;;4.63;;